Time;durP1;ratioP1;P1;durP2;ratioP2;P2;SDS_P1;SDS_P2;PMS_P1;PMS_P2;Temp;Humidity;BMP_temperature;BMP_pressure;BME280_temperature;BME280_humidity;BME280_pressure;Samples;Min_cycle;Max_cycle;Signal;HPM_P1;HPM_P2
2020/12/30 00:00:52;;;;;;;0.60;0.60;;;1.30;99.90;;;;;;5090622;28;20192;-66
2020/12/30 00:03:18;;;;;;;0.10;0.10;;;1.30;99.90;;;;;;5090740;28;20222;-66
2020/12/30 00:05:44;;;;;;;1.02;1.00;;;1.30;99.90;;;;;;5090514;28;20194;-67
2020/12/30 00:08:10;;;;;;;0.38;0.38;;;1.30;99.90;;;;;;5090540;28;20195;-66
2020/12/30 00:10:36;;;;;;;0.82;0.82;;;1.20;99.90;;;;;;5090471;28;20168;-66
2020/12/30 00:13:03;;;;;;;0.10;0.10;;;1.20;99.90;;;;;;5090224;28;20180;-66
2020/12/30 00:15:29;;;;;;;1.42;1.42;;;1.20;99.90;;;;;;5090293;28;20160;-66
2020/12/30 00:17:55;;;;;;;0.20;0.20;;;1.20;99.90;;;;;;5090424;28;20195;-67
2020/12/30 00:20:21;;;;;;;4.78;1.88;;;1.10;99.90;;;;;;5090279;28;20653;-67
2020/12/30 00:22:48;;;;;;;0.95;0.95;;;1.10;99.90;;;;;;5090212;28;20206;-66
2020/12/30 00:25:15;;;;;;;0.70;0.70;;;1.10;99.90;;;;;;5090356;28;20224;-66
2020/12/30 00:27:42;;;;;;;2.60;2.38;;;1.20;99.90;;;;;;5090017;28;20192;-66
2020/12/30 00:30:10;;;;;;;0.32;0.32;;;1.20;99.90;;;;;;5090083;28;20156;-66
2020/12/30 00:32:36;;;;;;;0.38;0.38;;;1.20;99.90;;;;;;5094538;28;20195;-66
2020/12/30 00:35:03;;;;;;;1.13;1.00;;;1.20;99.90;;;;;;5110239;28;20155;-66
2020/12/30 00:37:29;;;;;;;0.85;0.85;;;1.20;99.90;;;;;;5110130;28;20156;-67
2020/12/30 00:39:55;;;;;;;0.52;0.52;;;1.20;99.90;;;;;;5110034;28;20233;-66
2020/12/30 00:42:21;;;;;;;0.45;0.45;;;1.30;99.90;;;;;;5110043;28;20227;-65
2020/12/30 00:44:47;;;;;;;1.58;1.48;;;1.30;99.90;;;;;;5110099;28;20181;-66
2020/12/30 00:47:14;;;;;;;0.45;0.45;;;1.30;99.90;;;;;;5110146;28;20167;-66
2020/12/30 00:49:40;;;;;;;0.15;0.15;;;1.30;99.90;;;;;;5110066;28;20170;-66
2020/12/30 00:52:08;;;;;;;3.45;2.42;;;1.20;99.90;;;;;;5109811;28;20248;-66
2020/12/30 00:54:35;;;;;;;0.85;0.85;;;1.20;99.90;;;;;;5109868;28;20167;-66
2020/12/30 00:57:00;;;;;;;1.10;1.10;;;1.20;99.90;;;;;;5109814;28;20166;-66
2020/12/30 00:59:26;;;;;;;0.30;0.30;;;1.10;99.90;;;;;;5109660;28;20163;-66
2020/12/30 01:01:53;;;;;;;1.10;1.10;;;1.10;99.90;;;;;;5109473;28;20203;-66
2020/12/30 01:04:20;;;;;;;0.55;0.55;;;1.10;99.90;;;;;;5109676;28;20179;-66
2020/12/30 01:06:53;;;;;;;0.55;0.55;;;1.00;99.90;;;;;;5109742;28;20178;-66
2020/12/30 01:09:21;;;;;;;1.55;1.52;;;1.00;99.90;;;;;;5109685;28;20151;-66
2020/12/30 01:11:47;;;;;;;0.50;0.50;;;0.90;99.90;;;;;;5109638;28;20166;-66
2020/12/30 01:14:14;;;;;;;1.35;1.25;;;1.00;99.90;;;;;;5109529;28;20281;-66
2020/12/30 01:16:40;;;;;;;0.32;0.32;;;1.00;99.90;;;;;;5109667;28;20160;-66
2020/12/30 01:19:06;;;;;;;0.90;0.90;;;0.90;99.90;;;;;;5109516;28;20166;-66
2020/12/30 01:21:42;;;;;;;1.45;1.17;;;1.00;99.90;;;;;;5109383;28;20187;-66
2020/12/30 01:24:08;;;;;;;0.40;0.40;;;1.00;99.90;;;;;;5105702;28;20202;-66
2020/12/30 01:26:38;;;;;;;0.73;0.73;;;0.90;99.90;;;;;;5109003;28;20232;-66
2020/12/30 01:29:07;;;;;;;0.20;0.20;;;0.90;99.90;;;;;;5090272;28;20260;-66
2020/12/30 01:31:35;;;;;;;0.35;0.35;;;1.00;99.90;;;;;;5089057;28;20160;-66
2020/12/30 01:34:02;;;;;;;0.40;0.40;;;1.00;99.90;;;;;;5089125;28;20160;-66
2020/12/30 01:36:28;;;;;;;1.38;1.27;;;1.20;99.90;;;;;;5089086;28;20182;-66
2020/12/30 01:38:55;;;;;;;1.08;0.88;;;1.20;99.90;;;;;;5088941;28;20192;-66
2020/12/30 01:41:22;;;;;;;0.40;0.40;;;1.20;99.90;;;;;;5088704;28;20220;-66
2020/12/30 01:44:09;;;;;;;2.05;1.95;;;1.10;99.90;;;;;;5088966;28;20152;-66
2020/12/30 01:46:36;;;;;;;0.35;0.35;;;1.00;99.90;;;;;;5088904;28;20542;-66
2020/12/30 01:49:05;;;;;;;2.50;0.85;;;1.10;99.90;;;;;;5088654;28;20191;-66
2020/12/30 01:51:31;;;;;;;1.38;1.08;;;1.10;99.90;;;;;;5088691;28;20163;-66
2020/12/30 01:53:59;;;;;;;1.65;1.55;;;1.20;99.90;;;;;;5088757;28;20207;-66
2020/12/30 01:56:30;;;;;;;0.50;0.50;;;1.40;99.90;;;;;;5088863;28;20251;-66
2020/12/30 01:58:55;;;;;;;0.60;0.60;;;1.40;99.90;;;;;;5102404;28;20240;-66
2020/12/30 02:01:25;;;;;;;2.17;2.08;;;1.50;99.90;;;;;;5108977;28;20183;-66
2020/12/30 02:03:56;;;;;;;0.63;0.63;;;1.60;99.90;;;;;;5108913;28;20177;-66
2020/12/30 02:06:24;;;;;;;0.95;0.95;;;1.60;99.90;;;;;;5107553;28;20179;-66
2020/12/30 02:08:51;;;;;;;0.85;0.85;;;1.70;99.90;;;;;;5108959;28;20191;-66
2020/12/30 02:11:20;;;;;;;0.40;0.40;;;1.70;99.90;;;;;;5108964;28;20173;-66
2020/12/30 02:13:46;;;;;;;0.98;0.98;;;1.70;99.90;;;;;;5108752;28;20159;-66
2020/12/30 02:16:12;;;;;;;0.20;0.20;;;1.80;99.90;;;;;;5108903;28;20170;-66
2020/12/30 02:18:38;;;;;;;0.10;0.10;;;1.80;99.90;;;;;;5108819;28;20199;-66
2020/12/30 02:21:04;;;;;;;0.30;0.30;;;1.70;99.90;;;;;;5108782;28;20192;-66
2020/12/30 02:23:35;;;;;;;0.30;0.30;;;1.70;99.90;;;;;;5094844;28;20200;-66
2020/12/30 02:26:00;;;;;;;0.40;0.40;;;1.70;99.90;;;;;;5088359;28;20160;-66
2020/12/30 02:28:26;;;;;;;0.82;0.82;;;1.60;99.90;;;;;;5097804;28;20220;-66
2020/12/30 02:30:53;;;;;;;0.85;0.85;;;1.60;99.90;;;;;;5108716;28;20191;-65
2020/12/30 02:33:19;;;;;;;1.08;1.05;;;1.70;99.90;;;;;;5108704;28;20167;-65
2020/12/30 02:35:45;;;;;;;0.85;0.85;;;1.80;99.90;;;;;;5108737;28;20193;-65
2020/12/30 02:38:11;;;;;;;1.90;1.77;;;1.70;99.90;;;;;;5108663;28;20191;-66
2020/12/30 02:40:37;;;;;;;0.10;0.10;;;1.80;99.90;;;;;;5109871;28;20226;-65
2020/12/30 02:43:03;;;;;;;0.30;0.30;;;1.80;99.90;;;;;;5112459;28;20148;-66
2020/12/30 02:45:29;;;;;;;0.63;0.63;;;1.80;99.90;;;;;;5112602;28;20211;-66
2020/12/30 02:47:55;;;;;;;0.10;0.10;;;1.70;99.90;;;;;;5112405;28;20205;-65
2020/12/30 02:50:21;;;;;;;1.40;1.17;;;1.70;99.90;;;;;;5112230;28;20246;-65
2020/12/30 02:52:47;;;;;;;0.15;0.15;;;1.70;99.90;;;;;;5108978;28;20198;-65
2020/12/30 02:55:13;;;;;;;0.32;0.32;;;1.60;99.90;;;;;;5112129;28;20181;-65
2020/12/30 02:57:39;;;;;;;1.33;1.33;;;1.60;99.90;;;;;;5112036;28;20151;-65
2020/12/30 03:00:05;;;;;;;0.15;0.15;;;1.50;99.90;;;;;;5110835;28;20170;-65
2020/12/30 03:02:30;;;;;;;7.53;1.75;;;1.50;99.90;;;;;;5111994;28;20199;-67
2020/12/30 03:04:56;;;;;;;2.25;2.15;;;1.50;99.90;;;;;;5112067;28;20163;-66
2020/12/30 03:07:22;;;;;;;0.50;0.50;;;1.50;99.90;;;;;;5112081;28;20159;-66
2020/12/30 03:09:48;;;;;;;0.30;0.30;;;1.30;99.90;;;;;;5112052;28;20635;-66
2020/12/30 03:12:14;;;;;;;1.45;1.38;;;1.20;99.90;;;;;;5111929;28;20202;-66
2020/12/30 03:14:40;;;;;;;3.20;3.00;;;1.10;99.90;;;;;;5112256;28;20239;-66
2020/12/30 03:17:06;;;;;;;0.82;0.82;;;1.20;99.90;;;;;;5112238;28;20160;-66
2020/12/30 03:19:32;;;;;;;0.50;0.50;;;1.20;99.90;;;;;;5112189;28;20190;-66
2020/12/30 03:21:58;;;;;;;0.75;0.75;;;1.30;99.90;;;;;;5111925;28;20186;-67
2020/12/30 03:24:24;;;;;;;1.38;1.38;;;1.30;99.90;;;;;;5112066;28;20148;-66
2020/12/30 03:26:50;;;;;;;1.90;1.45;;;1.40;99.90;;;;;;5112023;28;20159;-66
2020/12/30 03:29:16;;;;;;;0.30;0.30;;;1.40;99.90;;;;;;5111873;28;20152;-66
2020/12/30 03:31:42;;;;;;;0.60;0.60;;;1.40;99.90;;;;;;5111968;28;20589;-66
2020/12/30 03:34:11;;;;;;;0.10;0.10;;;1.50;99.90;;;;;;5110430;28;20199;-66
2020/12/30 03:36:37;;;;;;;1.17;1.13;;;1.50;99.90;;;;;;5111682;28;20170;-66
2020/12/30 03:39:04;;;;;;;3.42;3.13;;;1.60;99.90;;;;;;5111783;28;20191;-67
2020/12/30 03:41:30;;;;;;;0.45;0.45;;;1.70;99.90;;;;;;5111241;28;20229;-66
2020/12/30 03:43:56;;;;;;;0.38;0.38;;;1.70;99.90;;;;;;5111522;28;20191;-66
2020/12/30 03:46:22;;;;;;;0.20;0.20;;;1.60;99.90;;;;;;5111636;28;20159;-66
2020/12/30 03:48:48;;;;;;;0.30;0.30;;;1.50;99.90;;;;;;5111490;28;20155;-66
2020/12/30 03:51:14;;;;;;;0.30;0.30;;;1.50;99.90;;;;;;5110970;28;20227;-65
2020/12/30 03:53:40;;;;;;;0.95;0.95;;;1.60;99.90;;;;;;5111383;28;20245;-66
2020/12/30 03:56:05;;;;;;;1.33;1.33;;;1.60;99.90;;;;;;5111285;28;20160;-66
2020/12/30 03:58:31;;;;;;;0.80;0.50;;;1.60;99.90;;;;;;5111180;28;20175;-66
2020/12/30 04:00:57;;;;;;;4.38;3.22;;;1.70;99.90;;;;;;5111329;28;20191;-66
2020/12/30 04:03:23;;;;;;;0.98;0.98;;;1.70;99.90;;;;;;5111168;28;20214;-66
2020/12/30 04:05:52;;;;;;;5.68;4.70;;;1.70;99.90;;;;;;5111178;28;20159;-66
2020/12/30 04:08:19;;;;;;;3.53;3.33;;;1.70;99.90;;;;;;5111003;28;20159;-65
2020/12/30 04:10:45;;;;;;;2.47;1.52;;;1.70;99.90;;;;;;5110828;28;20164;-66
2020/12/30 04:13:12;;;;;;;0.93;0.93;;;1.70;99.90;;;;;;5109620;28;20206;-66
2020/12/30 04:15:37;;;;;;;0.75;0.75;;;1.60;99.90;;;;;;5111046;28;20163;-66
2020/12/30 04:18:04;;;;;;;2.05;1.95;;;1.60;99.90;;;;;;5110918;28;20473;-66
2020/12/30 04:20:30;;;;;;;2.60;2.45;;;1.60;99.90;;;;;;5110697;28;20167;-66
2020/12/30 04:22:56;;;;;;;2.25;2.15;;;1.50;99.90;;;;;;5110841;28;20190;-66
2020/12/30 04:25:22;;;;;;;0.90;0.90;;;1.50;99.90;;;;;;5110891;28;20160;-65
2020/12/30 04:27:48;;;;;;;0.95;0.95;;;1.50;99.90;;;;;;5110724;28;20215;-66
2020/12/30 04:30:14;;;;;;;1.02;1.02;;;1.50;99.90;;;;;;5110793;28;20162;-66
2020/12/30 04:32:39;;;;;;;1.33;1.33;;;1.60;99.90;;;;;;5110630;28;20199;-66
2020/12/30 04:35:06;;;;;;;4.90;1.70;;;1.50;99.90;;;;;;5109296;28;20167;-66
2020/12/30 04:37:32;;;;;;;2.50;2.13;;;1.50;99.90;;;;;;5110508;28;20163;-66
2020/12/30 04:39:58;;;;;;;3.30;2.05;;;1.50;99.90;;;;;;5110387;28;20227;-65
2020/12/30 04:42:35;;;;;;;1.08;1.05;;;1.40;99.90;;;;;;5110326;28;20232;-67
2020/12/30 04:45:07;;;;;;;1.73;1.65;;;1.30;99.90;;;;;;5110376;28;20190;-67
2020/12/30 04:47:34;;;;;;;0.65;0.65;;;1.40;99.90;;;;;;5110222;28;20183;-67
2020/12/30 04:50:00;;;;;;;3.15;2.08;;;1.40;99.90;;;;;;5108831;28;20183;-66
2020/12/30 04:52:28;;;;;;;1.85;1.75;;;1.60;99.90;;;;;;5110276;28;20198;-67
2020/12/30 04:54:55;;;;;;;0.52;0.52;;;1.60;99.90;;;;;;5110237;28;20247;-67
2020/12/30 04:57:35;;;;;;;0.30;0.30;;;1.60;99.90;;;;;;5110078;28;20181;-67
2020/12/30 05:00:06;;;;;;;0.95;0.95;;;1.50;99.90;;;;;;5109856;28;20162;-66
2020/12/30 05:02:34;;;;;;;0.38;0.38;;;1.60;99.90;;;;;;5109065;28;20210;-66
2020/12/30 05:05:01;;;;;;;0.93;0.90;;;1.70;99.90;;;;;;5110084;28;20167;-66
2020/12/30 05:07:29;;;;;;;0.40;0.40;;;1.80;99.90;;;;;;5109964;28;20238;-66
2020/12/30 05:09:58;;;;;;;1.20;1.20;;;1.80;99.90;;;;;;5109866;28;20213;-66
2020/12/30 05:12:26;;;;;;;0.65;0.65;;;1.80;99.90;;;;;;5109601;28;20183;-66
2020/12/30 05:14:52;;;;;;;1.10;1.10;;;1.90;99.90;;;;;;5109565;28;20178;-66
2020/12/30 05:17:18;;;;;;;0.68;0.68;;;1.90;99.90;;;;;;5109898;28;20571;-67
2020/12/30 05:19:45;;;;;;;0.17;0.17;;;2.00;99.90;;;;;;5109879;28;20699;-67
2020/12/30 05:22:19;;;;;;;0.63;0.63;;;1.90;99.90;;;;;;5109572;28;20187;-66
2020/12/30 05:24:47;;;;;;;2.55;2.35;;;2.00;99.90;;;;;;5109759;28;20152;-66
2020/12/30 05:27:14;;;;;;;1.40;1.35;;;1.90;99.90;;;;;;5106614;28;20403;-66
2020/12/30 05:29:44;;;;;;;2.10;2.00;;;1.90;99.90;;;;;;5089430;28;20149;-66
2020/12/30 05:32:10;;;;;;;16.77;2.65;;;2.00;99.90;;;;;;5089154;28;20179;-66
2020/12/30 05:34:36;;;;;;;0.20;0.20;;;2.00;99.90;;;;;;5089344;28;20156;-66
2020/12/30 05:37:02;;;;;;;1.23;1.23;;;2.00;99.90;;;;;;5088994;28;20186;-66
2020/12/30 05:39:32;;;;;;;0.50;0.50;;;2.00;99.90;;;;;;5089227;28;20231;-66
2020/12/30 05:42:16;;;;;;;1.05;1.05;;;2.10;99.90;;;;;;5088996;28;20176;-65
2020/12/30 05:44:45;;;;;;;2.15;2.03;;;2.20;99.90;;;;;;5089153;28;20176;-67
2020/12/30 05:47:20;;;;;;;2.88;2.72;;;2.20;99.90;;;;;;5088996;28;20196;-66
2020/12/30 05:49:48;;;;;;;0.73;0.73;;;2.20;99.90;;;;;;5087935;28;20207;-66
2020/12/30 05:52:18;;;;;;;1.17;1.17;;;2.20;99.90;;;;;;5087858;28;20197;-66
2020/12/30 05:54:56;;;;;;;0.70;0.70;;;2.10;99.90;;;;;;5087874;28;20176;-66
2020/12/30 05:57:31;;;;;;;0.95;0.95;;;2.10;99.90;;;;;;5089027;28;20187;-66
2020/12/30 06:00:12;;;;;;;0.95;0.95;;;2.10;99.90;;;;;;5088932;28;20164;-66
2020/12/30 06:02:46;;;;;;;0.55;0.55;;;2.10;99.90;;;;;;5088819;28;20296;-66
2020/12/30 06:05:16;;;;;;;1.00;1.00;;;2.10;99.90;;;;;;5087715;28;20265;-67
2020/12/30 06:07:44;;;;;;;0.28;0.28;;;2.10;99.90;;;;;;5088845;28;20264;-66
2020/12/30 06:10:12;;;;;;;1.67;1.60;;;2.10;99.90;;;;;;5088943;28;20152;-66
2020/12/30 06:12:47;;;;;;;0.43;0.43;;;2.10;99.90;;;;;;5088830;28;20188;-66
2020/12/30 06:15:25;;;;;;;0.93;0.93;;;2.00;99.90;;;;;;5092708;28;20168;-66
2020/12/30 06:17:51;;;;;;;0.85;0.85;;;2.00;99.90;;;;;;5097687;28;20190;-66
2020/12/30 06:20:22;;;;;;;2.70;2.53;;;2.00;99.90;;;;;;5112806;28;20197;-66
2020/12/30 06:22:54;;;;;;;0.75;0.75;;;2.00;99.90;;;;;;5110868;28;20552;-66
2020/12/30 06:25:21;;;;;;;0.88;0.88;;;1.90;99.90;;;;;;5112932;28;20177;-66
2020/12/30 06:27:48;;;;;;;0.43;0.43;;;1.80;99.90;;;;;;5112954;28;20155;-66
2020/12/30 06:30:15;;;;;;;1.27;1.27;;;1.80;99.90;;;;;;5113057;28;20156;-67
2020/12/30 06:32:41;;;;;;;5.35;3.80;;;1.80;99.90;;;;;;5111547;28;20222;-66
2020/12/30 06:35:07;;;;;;;1.13;1.08;;;1.80;99.90;;;;;;5112825;28;20164;-67
2020/12/30 06:37:34;;;;;;;0.60;0.60;;;1.80;99.90;;;;;;5112798;28;20160;-66
2020/12/30 06:40:15;;;;;;;0.60;0.60;;;1.80;99.90;;;;;;5112577;28;20211;-66
2020/12/30 06:42:41;;;;;;;0.80;0.80;;;1.80;99.90;;;;;;5112592;28;20248;-66
2020/12/30 06:45:07;;;;;;;2.03;1.83;;;1.90;99.90;;;;;;5112744;28;20155;-67
2020/12/30 06:48:00;;;;;;;1.65;1.55;;;1.90;99.90;;;;;;5112702;28;20160;-66
2020/12/30 06:50:27;;;;;;;1.50;1.50;;;1.90;99.90;;;;;;5112374;28;20156;-66
2020/12/30 06:52:53;;;;;;;0.45;0.45;;;1.90;99.90;;;;;;5112535;28;20203;-66
2020/12/30 06:55:44;;;;;;;1.98;1.88;;;1.80;99.90;;;;;;5112674;28;20245;-66
2020/12/30 06:58:49;;;;;;;1.10;1.10;;;1.80;99.90;;;;;;5112493;28;20171;-66
2020/12/30 07:01:20;;;;;;;1.05;1.05;;;1.90;99.90;;;;;;5112349;28;20195;-66
2020/12/30 07:03:47;;;;;;;1.27;1.27;;;2.00;99.90;;;;;;5112263;28;20190;-66
2020/12/30 07:06:26;;;;;;;3.28;3.08;;;2.00;99.90;;;;;;5110761;28;20680;-66
2020/12/30 07:08:54;;;;;;;1.20;1.20;;;2.00;99.90;;;;;;5095411;28;20225;-66
2020/12/30 07:11:43;;;;;;;1.63;1.33;;;2.00;99.90;;;;;;5091926;28;20160;-66
2020/12/30 07:14:13;;;;;;;2.90;1.20;;;1.90;99.90;;;;;;5091744;28;20220;-66
2020/12/30 07:16:40;;;;;;;0.70;0.70;;;1.90;99.90;;;;;;5090283;28;20167;-67
2020/12/30 07:19:24;;;;;;;0.17;0.17;;;1.90;99.90;;;;;;5091771;28;20163;-66
2020/12/30 07:22:06;;;;;;;0.50;0.50;;;2.00;99.90;;;;;;5091675;28;20183;-65
2020/12/30 07:24:55;;;;;;;1.67;1.65;;;1.90;99.90;;;;;;5091344;28;20163;-66
2020/12/30 07:27:26;;;;;;;0.82;0.82;;;2.00;99.90;;;;;;5091556;28;20194;-66
2020/12/30 07:29:52;;;;;;;2.65;2.42;;;2.10;99.90;;;;;;5091592;28;20323;-67
2020/12/30 07:32:18;;;;;;;0.60;0.60;;;2.00;99.90;;;;;;5091524;28;20192;-67
2020/12/30 07:34:52;;;;;;;1.60;1.50;;;2.00;99.90;;;;;;5091420;28;20152;-67
2020/12/30 07:37:19;;;;;;;0.10;0.10;;;2.10;99.90;;;;;;5092536;28;20195;-66
2020/12/30 07:39:46;;;;;;;0.73;0.73;;;2.30;99.90;;;;;;5091274;28;20220;-66
2020/12/30 07:42:17;;;;;;;0.68;0.68;;;2.40;99.90;;;;;;5091133;28;20192;-67
2020/12/30 07:44:47;;;;;;;2.60;1.30;;;2.50;99.90;;;;;;5091286;28;20213;-66
2020/12/30 07:47:14;;;;;;;0.10;0.10;;;2.70;99.90;;;;;;5089958;28;20221;-67
2020/12/30 07:49:40;;;;;;;0.55;0.55;;;2.80;99.90;;;;;;5091212;28;20524;-66
2020/12/30 07:52:07;;;;;;;2.17;2.08;;;2.90;99.90;;;;;;5090993;28;20156;-66
2020/12/30 07:54:33;;;;;;;0.47;0.47;;;3.00;99.90;;;;;;5091091;28;20228;-66
2020/12/30 07:57:05;;;;;;;1.42;1.42;;;3.00;99.90;;;;;;5091049;28;20160;-66
2020/12/30 07:59:33;;;;;;;0.50;0.50;;;3.10;99.90;;;;;;5091083;28;20255;-66
2020/12/30 08:02:04;;;;;;;2.33;2.17;;;3.20;99.90;;;;;;5090782;28;20203;-66
2020/12/30 08:04:33;;;;;;;0.30;0.30;;;3.20;99.90;;;;;;5090897;28;20153;-66
2020/12/30 08:07:01;;;;;;;1.77;1.67;;;3.10;99.90;;;;;;5090984;28;20235;-65
2020/12/30 08:09:30;;;;;;;2.08;1.65;;;3.10;99.90;;;;;;5089309;28;20568;-65
2020/12/30 08:11:58;;;;;;;1.52;1.42;;;3.00;99.90;;;;;;5089548;28;20556;-65
2020/12/30 08:14:26;;;;;;;0.73;0.65;;;2.90;99.90;;;;;;5090773;28;20160;-65
2020/12/30 08:17:01;;;;;;;0.50;0.50;;;2.80;99.90;;;;;;5089460;28;20207;-65
2020/12/30 08:19:29;;;;;;;1.00;1.00;;;2.70;99.90;;;;;;5089171;28;20203;-65
2020/12/30 08:22:03;;;;;;;5.50;2.20;;;2.70;99.90;;;;;;5089804;28;20202;-65
2020/12/30 08:24:30;;;;;;;1.50;1.48;;;2.80;99.90;;;;;;5090436;28;20190;-66
2020/12/30 08:26:57;;;;;;;2.05;1.95;;;2.80;99.90;;;;;;5090479;28;20160;-65
2020/12/30 08:29:28;;;;;;;6.18;2.92;;;2.70;99.90;;;;;;5090323;28;20699;-66
2020/12/30 08:31:57;;;;;;;1.63;1.23;;;2.70;99.90;;;;;;5090347;28;20220;-66
2020/12/30 08:34:27;;;;;;;0.88;0.88;;;2.60;99.90;;;;;;5090381;28;20156;-65
2020/12/30 08:37:04;;;;;;;0.40;0.40;;;2.60;99.90;;;;;;5090127;28;20167;-65
2020/12/30 08:39:30;;;;;;;0.65;0.65;;;2.60;99.90;;;;;;5089954;28;20219;-66
2020/12/30 08:41:59;;;;;;;2.10;2.00;;;2.70;99.90;;;;;;5088787;28;20199;-66
2020/12/30 08:44:26;;;;;;;1.42;1.35;;;2.70;99.90;;;;;;5089904;28;20186;-66
2020/12/30 08:46:57;;;;;;;2.15;2.05;;;2.90;99.90;;;;;;5089814;28;20191;-66
2020/12/30 08:49:24;;;;;;;0.10;0.10;;;3.00;99.90;;;;;;5088541;28;20200;-66
2020/12/30 08:51:50;;;;;;;0.70;0.70;;;3.00;99.90;;;;;;5089868;28;20179;-66
2020/12/30 08:54:18;;;;;;;2.40;1.75;;;2.90;99.90;;;;;;5090051;28;20156;-66
2020/12/30 08:56:45;;;;;;;1.23;1.20;;;2.90;99.90;;;;;;5088499;28;20178;-67
2020/12/30 08:59:21;;;;;;;0.45;0.45;;;3.00;99.90;;;;;;5089734;28;20587;-66
2020/12/30 09:01:47;;;;;;;1.65;1.55;;;2.90;99.90;;;;;;5089548;28;20195;-66
2020/12/30 09:04:13;;;;;;;1.10;1.10;;;3.10;99.90;;;;;;5089730;28;20160;-67
2020/12/30 09:06:40;;;;;;;1.25;1.25;;;3.30;99.90;;;;;;5089644;28;20156;-67
2020/12/30 09:09:11;;;;;;;0.75;0.75;;;3.60;99.90;;;;;;5089511;28;20196;-66
2020/12/30 09:11:44;;;;;;;1.50;1.40;;;3.60;99.90;;;;;;5089642;28;20220;-66
2020/12/30 09:14:15;;;;;;;0.95;0.95;;;3.40;99.90;;;;;;5089556;28;20157;-66
2020/12/30 09:16:57;;;;;;;1.45;1.42;;;3.40;99.90;;;;;;5089590;28;20159;-66
2020/12/30 09:19:23;;;;;;;0.65;0.65;;;3.40;99.90;;;;;;5088881;28;20232;-66
2020/12/30 09:21:49;;;;;;;0.40;0.40;;;3.60;99.90;;;;;;5089367;28;20190;-66
2020/12/30 09:24:16;;;;;;;0.22;0.22;;;3.80;99.90;;;;;;5087787;28;20553;-66
2020/12/30 09:26:43;;;;;;;0.63;0.63;;;4.10;99.90;;;;;;5089204;28;20148;-66
2020/12/30 09:29:21;;;;;;;1.35;1.25;;;4.50;99.90;;;;;;5089196;28;20213;-67
2020/12/30 09:31:55;;;;;;;0.17;0.17;;;4.70;99.90;;;;;;5089138;28;20650;-66
2020/12/30 09:34:26;;;;;;;0.82;0.82;;;4.80;99.90;;;;;;5089359;28;20171;-65
2020/12/30 09:36:57;;;;;;;1.38;0.80;;;4.80;99.90;;;;;;5089296;28;20179;-66
2020/12/30 09:39:24;;;;;;;1.63;0.57;;;5.10;99.90;;;;;;5088952;28;20168;-65
2020/12/30 09:42:00;;;;;;;0.55;0.55;;;5.40;99.90;;;;;;5088917;28;20271;-67
2020/12/30 09:44:26;;;;;;;0.75;0.75;;;5.70;99.90;;;;;;5089165;28;20183;-67
2020/12/30 09:46:52;;;;;;;0.30;0.30;;;6.00;99.90;;;;;;5089118;28;20160;-67
2020/12/30 09:49:18;;;;;;;3.20;2.83;;;6.90;99.90;;;;;;5088578;28;20156;-67
2020/12/30 09:51:45;;;;;;;0.55;0.55;;;7.90;99.90;;;;;;5087334;28;20191;-67
2020/12/30 09:54:10;;;;;;;0.65;0.65;;;8.30;99.90;;;;;;5089249;28;20156;-67
2020/12/30 09:56:36;;;;;;;1.95;1.83;;;8.30;99.90;;;;;;5088933;28;20187;-67
2020/12/30 09:59:03;;;;;;;0.77;0.77;;;8.20;99.90;;;;;;5089000;28;20293;-67
2020/12/30 10:01:32;;;;;;;0.70;0.70;;;8.10;99.90;;;;;;5088797;28;20238;-67
2020/12/30 10:03:58;;;;;;;0.20;0.20;;;8.00;99.90;;;;;;5088950;28;20153;-67
2020/12/30 10:06:24;;;;;;;0.47;0.43;;;8.10;99.90;;;;;;5087584;28;20239;-64
2020/12/30 10:08:50;;;;;;;2.08;1.30;;;8.10;99.90;;;;;;5089049;28;20164;-67
2020/12/30 10:11:19;;;;;;;0.10;0.10;;;7.70;99.90;;;;;;5088821;28;20206;-67
2020/12/30 10:13:45;;;;;;;0.50;0.50;;;7.30;99.90;;;;;;5088754;28;20168;-66
2020/12/30 10:16:11;;;;;;;0.52;0.52;;;6.90;99.90;;;;;;5087484;28;20176;-66
2020/12/30 10:18:37;;;;;;;0.45;0.45;;;6.70;99.90;;;;;;5088846;28;20156;-65
2020/12/30 10:21:03;;;;;;;0.00;0.00;;;6.70;99.90;;;;;;5087481;28;20210;-64
2020/12/30 10:23:28;;;;;;;0.13;0.13;;;6.90;99.90;;;;;;5087399;28;20164;-66
2020/12/30 10:25:54;;;;;;;1.23;1.08;;;6.80;99.90;;;;;;5088624;28;20152;-64
2020/12/30 10:28:20;;;;;;;0.15;0.15;;;7.20;99.90;;;;;;5088839;28;20180;-67
2020/12/30 10:30:46;;;;;;;0.10;0.10;;;7.40;99.90;;;;;;5088769;28;20617;-64
2020/12/30 10:33:11;;;;;;;0.45;0.45;;;8.50;99.90;;;;;;5087296;28;20222;-64
2020/12/30 10:35:37;;;;;;;0.15;0.15;;;10.90;99.90;;;;;;5088727;28;20172;-64
2020/12/30 10:38:03;;;;;;;0.00;0.00;;;13.90;99.90;;;;;;5088500;28;20171;-65
2020/12/30 10:40:29;;;;;;;0.77;0.77;;;15.30;99.90;;;;;;5088436;28;20586;-65
2020/12/30 10:42:55;;;;;;;2.10;1.25;;;15.20;99.90;;;;;;5088402;28;20282;-64
2020/12/30 10:45:20;;;;;;;2.58;1.77;;;13.50;99.90;;;;;;5088603;28;20211;-66
2020/12/30 10:47:46;;;;;;;1.08;1.05;;;12.80;99.90;;;;;;5088495;28;20156;-66
2020/12/30 10:50:12;;;;;;;1.30;1.20;;;13.30;99.90;;;;;;5088461;28;20187;-64
2020/12/30 10:52:38;;;;;;;1.55;0.73;;;14.60;99.90;;;;;;5088489;28;20206;-65
2020/12/30 10:55:03;;;;;;;0.13;0.13;;;16.20;99.90;;;;;;5088580;28;20160;-65
2020/12/30 10:57:29;;;;;;;0.68;0.68;;;16.60;99.90;;;;;;5088501;28;20239;-65
2020/12/30 10:59:55;;;;;;;1.35;1.25;;;16.90;99.90;;;;;;5088490;28;20178;-67
2020/12/30 11:02:21;;;;;;;1.63;1.52;;;17.00;99.90;;;;;;5090466;28;20225;-65
2020/12/30 11:04:46;;;;;;;3.10;1.55;;;16.60;99.90;;;;;;5092132;28;20155;-65
2020/12/30 11:07:12;;;;;;;0.28;0.22;;;16.00;99.90;;;;;;5091808;28;20159;-65
2020/12/30 11:09:38;;;;;;;0.35;0.35;;;16.30;99.90;;;;;;5091849;28;20185;-65
2020/12/30 11:12:04;;;;;;;0.50;0.50;;;16.10;99.90;;;;;;5090556;28;20630;-65
2020/12/30 11:14:29;;;;;;;0.43;0.43;;;15.10;99.90;;;;;;5091994;28;20163;-66
2020/12/30 11:16:55;;;;;;;0.60;0.50;;;14.40;99.90;;;;;;5090630;28;20200;-67
2020/12/30 11:19:21;;;;;;;0.25;0.25;;;14.50;99.90;;;;;;5090396;28;20186;-67
2020/12/30 11:21:54;;;;;;;1.75;0.20;;;13.20;99.90;;;;;;5090200;28;20208;-66
2020/12/30 11:24:21;;;;;;;0.35;0.35;;;11.10;99.90;;;;;;5091648;28;20156;-67
2020/12/30 11:26:49;;;;;;;0.28;0.28;;;9.10;99.90;;;;;;5091488;28;20156;-67
2020/12/30 11:29:16;;;;;;;0.10;0.10;;;8.90;99.90;;;;;;5091442;28;20153;-67
2020/12/30 11:31:42;;;;;;;0.10;0.10;;;8.20;99.90;;;;;;5091427;28;20187;-66
2020/12/30 11:34:09;;;;;;;0.73;0.65;;;7.80;99.90;;;;;;5091525;28;20156;-66
2020/12/30 11:36:35;;;;;;;0.10;0.10;;;7.40;99.90;;;;;;5090125;28;20180;-66
2020/12/30 11:39:01;;;;;;;0.10;0.10;;;6.90;99.90;;;;;;5091453;28;20160;-66
2020/12/30 11:41:26;;;;;;;0.10;0.10;;;7.40;99.90;;;;;;5094898;28;20301;-67
2020/12/30 11:43:52;;;;;;;0.63;0.63;;;7.90;99.90;;;;;;5111690;28;20160;-66
2020/12/30 11:46:19;;;;;;;0.25;0.25;;;8.20;99.90;;;;;;5111585;28;20189;-67
2020/12/30 11:48:46;;;;;;;0.73;0.73;;;8.80;99.90;;;;;;5111390;28;20159;-67
2020/12/30 11:51:11;;;;;;;0.10;0.10;;;9.60;99.90;;;;;;5111377;28;20206;-67
2020/12/30 11:53:37;;;;;;;0.35;0.20;;;10.20;99.90;;;;;;5111449;28;20160;-67
2020/12/30 11:56:03;;;;;;;0.00;0.00;;;10.00;99.90;;;;;;5111253;28;20167;-68
2020/12/30 11:58:29;;;;;;;0.77;0.70;;;10.50;99.90;;;;;;5111365;28;20195;-68
2020/12/30 12:00:57;;;;;;;0.65;0.63;;;12.40;99.90;;;;;;5109846;28;20207;-67
2020/12/30 12:03:23;;;;;;;0.00;0.00;;;13.70;99.90;;;;;;5111201;28;20217;-67
2020/12/30 12:05:48;;;;;;;0.15;0.15;;;14.00;99.90;;;;;;5111228;28;20155;-68
2020/12/30 12:08:14;;;;;;;0.55;0.55;;;14.30;99.90;;;;;;5110979;28;20234;-67
2020/12/30 12:10:40;;;;;;;1.20;1.00;;;14.70;99.90;;;;;;5109697;28;20155;-67
2020/12/30 12:13:06;;;;;;;1.75;0.70;;;14.80;99.90;;;;;;5110529;28;20249;-67
2020/12/30 12:15:31;;;;;;;1.88;1.77;;;15.40;99.90;;;;;;5110976;28;20234;-67
2020/12/30 12:17:57;;;;;;;1.75;1.27;;;15.20;99.90;;;;;;5110788;28;20155;-67
2020/12/30 12:20:23;;;;;;;0.65;0.52;;;15.20;99.90;;;;;;5109548;28;20194;-66
2020/12/30 12:22:49;;;;;;;1.63;0.32;;;15.10;99.90;;;;;;5110736;28;20206;-67
2020/12/30 12:25:14;;;;;;;1.50;1.38;;;15.10;99.90;;;;;;5109386;28;20287;-66
2020/12/30 12:27:40;;;;;;;0.60;0.60;;;14.80;99.90;;;;;;5104164;28;20248;-66
2020/12/30 12:30:06;;;;;;;4.53;1.63;;;14.80;99.90;;;;;;5090469;28;20152;-66
2020/12/30 12:32:32;;;;;;;1.40;1.25;;;14.80;99.90;;;;;;5089991;28;20195;-66
2020/12/30 12:34:58;;;;;;;1.95;0.85;;;14.00;99.90;;;;;;5090409;28;20160;-66
2020/12/30 12:37:26;;;;;;;1.90;1.23;;;12.90;99.90;;;;;;5089884;28;20567;-65
2020/12/30 12:39:53;;;;;;;0.40;0.40;;;12.00;99.90;;;;;;5089925;28;20211;-66
2020/12/30 12:42:21;;;;;;;19.15;1.50;;;10.50;99.90;;;;;;5088516;28;20216;-66
2020/12/30 12:44:47;;;;;;;4.68;1.60;;;9.40;99.90;;;;;;5088775;28;20179;-66
2020/12/30 12:47:13;;;;;;;2.75;1.80;;;8.70;99.90;;;;;;5090086;28;20160;-65
2020/12/30 12:49:41;;;;;;;0.75;0.68;;;8.10;99.90;;;;;;5089978;28;20190;-66
2020/12/30 12:52:07;;;;;;;1.05;1.05;;;7.60;99.90;;;;;;5089866;28;20293;-68
2020/12/30 12:54:33;;;;;;;0.95;0.95;;;7.20;99.90;;;;;;5089877;28;20175;-67
2020/12/30 12:57:04;;;;;;;1.25;1.13;;;7.00;99.90;;;;;;5089841;28;20168;-67
2020/12/30 12:59:34;;;;;;;1.40;1.30;;;6.80;99.90;;;;;;5089610;28;20165;-67